createdAt,value
2022-09-15T00:01:11.001Z,12.96
2022-09-15T00:03:45.664Z,12.97
2022-09-15T00:06:13.537Z,12.99
2022-09-15T00:08:41.726Z,13.00
2022-09-15T00:11:16.538Z,13.02
2022-09-15T00:13:45.209Z,13.04
2022-09-15T00:16:15.411Z,13.05
2022-09-15T00:18:44.340Z,13.07
2022-09-15T00:21:14.558Z,13.08
2022-09-15T00:23:42.940Z,13.09
2022-09-15T00:26:12.698Z,13.11
2022-09-15T00:28:41.146Z,13.12
2022-09-15T00:31:11.498Z,13.13
2022-09-15T00:33:39.578Z,13.14
2022-09-15T00:36:10.429Z,13.15
2022-09-15T00:38:38.864Z,13.15
2022-09-15T00:41:07.748Z,13.16
2022-09-15T00:43:41.664Z,13.16
2022-09-15T00:46:13.307Z,13.15
2022-09-15T00:48:44.844Z,13.15
2022-09-15T00:51:14.603Z,13.13
2022-09-15T00:53:43.271Z,13.13
2022-09-15T00:56:15.151Z,13.11
2022-09-15T00:58:45.490Z,13.09
2022-09-15T01:01:14.819Z,13.06
2022-09-15T01:03:43.447Z,13.03
2022-09-15T01:06:25.630Z,13.01
2022-09-15T01:09:12.029Z,12.98
2022-09-15T01:11:40.256Z,12.94
2022-09-15T01:14:08.560Z,12.91
2022-09-15T01:16:44.941Z,12.89
2022-09-15T01:19:22.238Z,12.86
2022-09-15T01:21:50.208Z,12.83
2022-09-15T01:24:26.909Z,12.81
2022-09-15T01:27:38.116Z,12.79
2022-09-15T01:30:06.649Z,12.77
2022-09-15T01:33:05.256Z,12.75
2022-09-15T01:35:37.403Z,12.75
2022-09-15T01:38:14.700Z,12.75
2022-09-15T01:40:53.006Z,12.76
2022-09-15T01:43:22.511Z,12.77
2022-09-15T01:45:51.521Z,12.78
2022-09-15T01:48:21.371Z,12.79
2022-09-15T01:50:52.358Z,12.79
2022-09-15T01:53:22.376Z,12.81
2022-09-15T01:56:10.728Z,12.82
2022-09-15T01:58:40.982Z,12.84
2022-09-15T02:01:13.907Z,12.86
2022-09-15T02:03:44.909Z,12.87
2022-09-15T02:06:22.623Z,12.88
2022-09-15T02:08:58.937Z,12.90
2022-09-15T02:11:30.488Z,12.91
2022-09-15T02:14:03.642Z,12.92
2022-09-15T02:16:34.130Z,12.94
2022-09-15T02:19:11.294Z,12.93
2022-09-15T02:22:02.936Z,12.95
2022-09-15T02:24:35.600Z,12.98
2022-09-15T02:27:05.004Z,13.00
2022-09-15T02:29:36.262Z,13.03
2022-09-15T02:32:07.436Z,13.06
2022-09-15T02:34:37.575Z,13.08
2022-09-15T02:37:05.704Z,13.11
2022-09-15T02:39:35.715Z,13.15
2022-09-15T02:42:03.881Z,13.18
2022-09-15T02:44:31.957Z,13.20
2022-09-15T02:47:02.074Z,13.23
2022-09-15T02:49:29.944Z,13.25
2022-09-15T02:51:57.914Z,13.27
2022-09-15T02:54:25.881Z,13.29
2022-09-15T02:56:53.851Z,13.31
2022-09-15T02:59:21.922Z,13.33
2022-09-15T03:01:52.086Z,13.35
2022-09-15T03:04:19.964Z,13.37
2022-09-15T03:06:47.876Z,13.37
2022-09-15T03:09:16.049Z,13.38
2022-09-15T03:11:43.931Z,13.39
2022-09-15T03:14:11.824Z,13.41
2022-09-15T03:16:40.463Z,13.42
2022-09-15T03:19:08.349Z,13.44
2022-09-15T03:21:36.513Z,13.46
2022-09-15T03:24:05.303Z,13.48
2022-09-15T03:26:33.089Z,13.49
2022-09-15T03:29:01.038Z,13.52
2022-09-15T03:31:29.040Z,13.53
2022-09-15T03:33:58.304Z,13.54
2022-09-15T03:36:26.172Z,13.57
2022-09-15T03:38:55.780Z,13.60
2022-09-15T03:41:24.467Z,13.63
2022-09-15T03:43:52.718Z,13.66
2022-09-15T03:46:20.846Z,13.68
2022-09-15T03:48:48.785Z,13.70
2022-09-15T03:51:16.654Z,13.72
2022-09-15T03:53:44.546Z,13.75
2022-09-15T03:56:12.671Z,13.76
2022-09-15T03:58:40.663Z,13.77
2022-09-15T04:01:08.938Z,13.78
2022-09-15T04:03:42.189Z,13.79
2022-09-15T04:06:13.281Z,13.80
2022-09-15T04:08:41.620Z,13.81
2022-09-15T04:11:10.824Z,13.82
2022-09-15T04:13:39.210Z,13.84
2022-09-15T04:16:08.541Z,13.85
2022-09-15T04:18:36.955Z,13.88
2022-09-15T04:21:06.848Z,13.91
2022-09-15T04:23:35.007Z,13.93
2022-09-15T04:26:04.919Z,13.95
2022-09-15T04:28:34.223Z,13.97
2022-09-15T04:31:05.176Z,13.98
2022-09-15T04:33:33.341Z,14.00
2022-09-15T04:36:02.561Z,14.02
2022-09-15T04:38:31.833Z,14.04
2022-09-15T04:41:00.225Z,14.06
2022-09-15T04:43:28.643Z,14.09
2022-09-15T04:45:56.741Z,14.11
2022-09-15T04:48:24.751Z,14.13
2022-09-15T04:51:00.444Z,14.15
2022-09-15T04:53:28.464Z,14.17
2022-09-15T04:56:13.533Z,14.19
2022-09-15T04:58:42.624Z,14.21
2022-09-15T05:01:15.760Z,14.23
2022-09-15T05:03:46.863Z,14.25
2022-09-15T05:06:16.365Z,14.26
2022-09-15T05:08:47.075Z,14.32
2022-09-15T05:11:15.373Z,14.43
2022-09-15T05:13:43.959Z,14.57
2022-09-15T05:16:14.428Z,14.76
2022-09-15T05:18:43.893Z,14.99
2022-09-15T05:21:13.538Z,15.21
2022-09-15T05:23:41.802Z,15.47
2022-09-15T05:26:12.817Z,15.72
2022-09-15T05:28:41.097Z,15.96
2022-09-15T05:31:10.493Z,16.06
2022-09-15T05:33:38.979Z,16.09
2022-09-15T05:36:07.391Z,16.08
2022-09-15T05:38:35.326Z,16.08
2022-09-15T05:41:07.905Z,16.09
2022-09-15T05:43:36.897Z,16.08
2022-09-15T05:46:05.766Z,16.07
2022-09-15T05:48:34.792Z,16.05
2022-09-15T05:51:03.050Z,16.03
2022-09-15T05:53:31.544Z,16.01
2022-09-15T05:56:00.354Z,15.99
2022-09-15T05:58:28.309Z,15.97
2022-09-15T06:00:56.638Z,15.95
2022-09-15T06:03:28.821Z,15.94
2022-09-15T06:05:59.622Z,15.94
2022-09-15T06:08:31.340Z,15.97
2022-09-15T06:11:03.721Z,16.03
2022-09-15T06:13:32.052Z,16.11
2022-09-15T06:16:07.652Z,16.19
2022-09-15T06:18:37.269Z,16.30
2022-09-15T06:21:06.484Z,16.45
2022-09-15T06:23:34.338Z,16.58
2022-09-15T06:26:28.612Z,16.63
2022-09-15T06:28:58.212Z,16.64
2022-09-15T06:31:27.193Z,16.65
2022-09-15T06:33:56.205Z,16.67
2022-09-15T06:36:26.143Z,16.69
2022-09-15T06:38:54.072Z,16.72
2022-09-15T06:41:22.057Z,16.77
2022-09-15T06:43:50.330Z,16.84
2022-09-15T06:46:22.389Z,16.94
2022-09-15T06:48:52.056Z,17.07
2022-09-15T06:51:21.513Z,17.20
2022-09-15T06:53:49.593Z,17.34
2022-09-15T06:56:18.889Z,17.49
2022-09-15T06:58:49.431Z,17.69
2022-09-15T07:01:34.199Z,17.90
2022-09-15T07:04:04.884Z,18.07
2022-09-15T07:06:33.861Z,18.19
2022-09-15T07:09:02.724Z,18.29
2022-09-15T07:11:31.392Z,18.40
2022-09-15T07:13:59.272Z,18.49
2022-09-15T07:16:27.215Z,18.59
2022-09-15T07:18:57.349Z,18.67
2022-09-15T07:21:25.317Z,18.75
2022-09-15T07:23:56.665Z,18.83
2022-09-15T07:26:25.762Z,18.98
2022-09-15T07:28:58.137Z,19.29
2022-09-15T07:31:28.827Z,19.61
2022-09-15T07:33:57.257Z,19.80
2022-09-15T07:36:25.731Z,19.91
2022-09-15T07:38:53.921Z,19.98
2022-09-15T07:41:25.154Z,20.01
2022-09-15T07:43:57.331Z,20.01
2022-09-15T07:46:26.829Z,20.00
2022-09-15T07:48:57.459Z,19.97
2022-09-15T07:51:25.902Z,19.95
2022-09-15T07:53:54.316Z,19.92
2022-09-15T07:56:23.516Z,19.90
2022-09-15T07:58:51.770Z,19.88
2022-09-15T08:01:22.426Z,19.88
2022-09-15T08:03:52.291Z,19.88
2022-09-15T08:06:25.342Z,19.89
2022-09-15T08:08:59.229Z,19.87
2022-09-15T08:11:29.261Z,19.82
2022-09-15T08:14:01.537Z,19.79
2022-09-15T08:16:29.776Z,19.75
2022-09-15T08:18:58.803Z,19.72
2022-09-15T08:21:27.892Z,19.69
2022-09-15T08:23:57.329Z,19.70
2022-09-15T08:26:26.703Z,19.74
2022-09-15T08:28:54.565Z,19.77
2022-09-15T08:31:24.422Z,19.81
2022-09-15T08:33:54.092Z,19.87
2022-09-15T08:36:22.405Z,19.92
2022-09-15T08:38:50.339Z,19.99
2022-09-15T08:41:27.728Z,20.06
2022-09-15T08:44:04.646Z,20.12
2022-09-15T08:46:37.772Z,20.20
2022-09-15T08:49:10.636Z,20.31
2022-09-15T08:51:50.183Z,20.42
2022-09-15T08:54:22.900Z,20.52
2022-09-15T08:56:51.282Z,20.64
2022-09-15T08:59:20.377Z,20.76
2022-09-15T09:01:57.705Z,20.89
2022-09-15T09:04:38.127Z,20.98
2022-09-15T09:07:15.058Z,21.07
2022-09-15T09:09:45.786Z,21.15
2022-09-15T09:12:19.755Z,21.23
2022-09-15T09:15:10.249Z,21.33
2022-09-15T09:17:38.119Z,21.40
2022-09-15T09:20:19.322Z,21.46
2022-09-15T09:22:48.831Z,21.55
2022-09-15T09:25:27.147Z,21.65
2022-09-15T09:28:01.943Z,21.74
2022-09-15T09:30:32.956Z,21.82
2022-09-15T09:33:10.682Z,21.89
2022-09-15T09:35:43.364Z,21.97
2022-09-15T09:38:12.878Z,22.04
2022-09-15T09:40:41.558Z,22.12
2022-09-15T09:43:09.914Z,22.20
2022-09-15T09:45:38.118Z,22.31
2022-09-15T09:48:14.283Z,22.39
2022-09-15T09:50:43.768Z,22.45
2022-09-15T09:53:31.501Z,22.51
2022-09-15T09:56:14.538Z,22.65
2022-09-15T09:58:43.019Z,22.92
2022-09-15T10:01:13.132Z,23.21
2022-09-15T10:03:43.381Z,23.52
2022-09-15T10:06:20.874Z,23.79
2022-09-15T10:08:54.249Z,24.10
2022-09-15T10:11:38.453Z,24.36
2022-09-15T10:14:06.286Z,24.58
2022-09-15T10:16:34.229Z,24.73
2022-09-15T10:19:02.308Z,24.80
2022-09-15T10:21:30.477Z,24.86
2022-09-15T10:24:02.047Z,24.91
2022-09-15T10:26:34.613Z,24.89
2022-09-15T10:29:13.779Z,24.90
2022-09-15T10:31:42.355Z,24.94
2022-09-15T10:34:32.839Z,25.02
2022-09-15T10:37:11.652Z,25.15
2022-09-15T10:39:39.656Z,25.28
2022-09-15T10:42:26.061Z,25.43
2022-09-15T10:45:09.040Z,25.63
2022-09-15T10:47:37.010Z,25.78
2022-09-15T10:50:08.705Z,25.90
2022-09-15T10:52:36.533Z,25.95
2022-09-15T10:55:27.804Z,25.96
2022-09-15T10:58:17.161Z,25.98
2022-09-15T11:00:54.048Z,25.99
2022-09-15T11:03:46.852Z,25.98
2022-09-15T11:06:38.372Z,25.94
2022-09-15T11:09:09.007Z,25.89
2022-09-15T11:11:40.047Z,25.86
2022-09-15T11:14:20.719Z,25.81
2022-09-15T11:16:49.225Z,25.85
2022-09-15T11:19:21.596Z,25.90
2022-09-15T11:21:49.538Z,25.94
2022-09-15T11:24:23.594Z,26.00
2022-09-15T11:27:24.084Z,25.99
2022-09-15T11:30:14.601Z,25.94
2022-09-15T11:32:58.119Z,25.84
2022-09-15T11:35:30.033Z,25.75
2022-09-15T11:38:01.631Z,25.66
2022-09-15T11:40:36.315Z,25.54
2022-09-15T11:43:15.029Z,25.42
2022-09-15T11:45:45.688Z,25.35
2022-09-15T11:48:21.773Z,25.38
2022-09-15T11:50:52.360Z,25.50
2022-09-15T11:53:32.055Z,25.62
2022-09-15T11:56:22.548Z,25.80
2022-09-15T11:58:50.413Z,26.00
2022-09-15T12:01:24.834Z,26.19
2022-09-15T12:04:09.164Z,26.39
2022-09-15T12:06:51.051Z,26.60
2022-09-15T12:09:20.469Z,26.91
2022-09-15T12:11:50.609Z,27.24
2022-09-15T12:14:27.590Z,27.55
2022-09-15T12:16:55.848Z,27.80
2022-09-15T12:19:26.932Z,27.92
2022-09-15T12:21:58.051Z,28.05
2022-09-15T12:24:38.723Z,28.18
2022-09-15T12:27:12.732Z,28.28
2022-09-15T12:29:47.765Z,28.36
2022-09-15T12:32:29.152Z,28.44
2022-09-15T12:35:04.761Z,28.52
2022-09-15T12:37:52.959Z,28.59
2022-09-15T12:40:26.920Z,28.66
2022-09-15T12:42:55.126Z,28.76
2022-09-15T12:45:25.853Z,28.84
2022-09-15T12:48:19.988Z,28.99
2022-09-15T12:50:54.501Z,29.20
2022-09-15T12:53:38.193Z,29.27
2022-09-15T12:56:21.418Z,29.25
2022-09-15T12:58:50.809Z,29.15
2022-09-15T13:01:19.290Z,29.06
2022-09-15T13:03:48.953Z,29.04
2022-09-15T13:06:19.872Z,29.04
2022-09-15T13:08:47.992Z,29.07
2022-09-15T13:11:22.508Z,29.07
2022-09-15T13:16:34.308Z,28.87
2022-09-15T13:19:09.088Z,28.81
2022-09-15T13:21:38.271Z,28.81
2022-09-15T13:24:08.358Z,28.83
2022-09-15T13:26:37.651Z,28.81
2022-09-15T13:29:06.573Z,28.81
2022-09-15T13:31:39.120Z,28.70
2022-09-15T13:40:06.753Z,28.14
2022-09-15T13:42:51.591Z,28.02
2022-09-15T13:45:30.796Z,27.87
2022-09-15T13:48:18.477Z,27.71
2022-09-15T13:51:12.917Z,27.57
2022-09-15T13:53:44.500Z,27.38
2022-09-15T13:56:24.031Z,27.17
2022-09-15T13:58:56.426Z,26.96
2022-09-15T14:01:29.197Z,26.75
2022-09-15T14:04:00.923Z,26.59
2022-09-15T14:06:37.196Z,26.41
2022-09-15T14:09:15.115Z,26.26
2022-09-15T14:11:44.289Z,26.08
2022-09-15T14:14:27.547Z,25.90
2022-09-15T14:16:56.448Z,25.70
2022-09-15T14:19:33.633Z,25.56
2022-09-15T14:22:03.406Z,25.43
2022-09-15T14:24:32.297Z,25.29
2022-09-15T14:27:08.048Z,25.16
2022-09-15T14:29:40.010Z,25.02
2022-09-15T14:32:11.915Z,24.89
2022-09-15T14:34:42.175Z,24.76
2022-09-15T14:37:20.919Z,24.63
2022-09-15T14:39:49.418Z,24.52
2022-09-15T14:42:20.248Z,24.46
2022-09-15T14:47:39.778Z,24.37
2022-09-15T14:50:16.827Z,24.33
2022-09-15T14:52:48.411Z,24.27
2022-09-15T14:55:20.465Z,24.20
2022-09-15T14:57:55.680Z,24.13
2022-09-15T15:00:26.288Z,24.06
2022-09-15T15:02:59.547Z,23.99
2022-09-15T15:05:30.413Z,23.93
2022-09-15T15:07:59.839Z,23.85
2022-09-15T15:10:34.921Z,23.77
2022-09-15T15:13:09.092Z,23.69
2022-09-15T15:15:37.789Z,23.62
2022-09-15T15:18:07.476Z,23.55
2022-09-15T15:20:35.435Z,23.46
2022-09-15T15:23:23.508Z,23.36
2022-09-15T15:25:52.391Z,23.27
2022-09-15T15:28:33.610Z,23.22
2022-09-15T15:31:13.675Z,23.15
2022-09-15T15:33:59.700Z,23.10
2022-09-15T15:36:28.872Z,23.04
2022-09-15T15:38:58.109Z,22.99
2022-09-15T15:41:27.586Z,22.93
2022-09-15T15:44:03.248Z,22.88
2022-09-15T15:46:45.268Z,22.81
2022-09-15T15:49:14.069Z,22.75
2022-09-15T15:51:42.845Z,22.69
2022-09-15T15:54:10.886Z,22.63
2022-09-15T15:56:39.091Z,22.56
2022-09-15T15:59:07.059Z,22.49
2022-09-15T16:01:35.386Z,22.41
2022-09-15T16:04:03.314Z,22.33
2022-09-15T16:06:32.198Z,22.23
2022-09-15T16:09:00.887Z,22.14
2022-09-15T16:11:29.161Z,22.07
2022-09-15T16:13:56.982Z,21.97
2022-09-15T16:16:26.606Z,21.87
2022-09-15T16:18:54.735Z,21.77
2022-09-15T16:21:28.211Z,21.68
2022-09-15T16:24:01.411Z,21.57
2022-09-15T16:26:29.235Z,21.47
2022-09-15T16:28:58.294Z,21.39
2022-09-15T16:31:26.198Z,21.30
2022-09-15T16:33:54.182Z,21.21
2022-09-15T16:36:22.382Z,21.12
2022-09-15T16:38:50.240Z,21.05
2022-09-15T16:41:25.964Z,20.95
2022-09-15T16:43:56.114Z,20.86
2022-09-15T16:46:24.051Z,20.75
2022-09-15T16:48:52.158Z,20.65
2022-09-15T16:51:27.359Z,20.53
2022-09-15T16:53:57.620Z,20.43
2022-09-15T16:56:26.002Z,20.32
2022-09-15T16:58:59.483Z,20.21
2022-09-15T17:01:28.222Z,20.11
2022-09-15T17:03:56.766Z,20.00
2022-09-15T17:06:24.657Z,19.92
2022-09-15T17:08:52.560Z,19.86
2022-09-15T17:11:20.778Z,19.81
2022-09-15T17:13:48.850Z,19.77
2022-09-15T17:16:19.376Z,19.73
2022-09-15T17:18:47.800Z,19.70
2022-09-15T17:21:16.980Z,19.66
2022-09-15T17:23:46.158Z,19.63
2022-09-15T17:26:15.768Z,19.62
2022-09-15T17:28:43.838Z,19.61
2022-09-15T17:31:13.909Z,19.61
2022-09-15T17:33:42.354Z,19.62
2022-09-15T17:36:10.244Z,19.63
2022-09-15T17:38:38.484Z,19.66
2022-09-15T17:41:06.756Z,19.67
2022-09-15T17:43:34.832Z,19.69
2022-09-15T17:46:02.794Z,19.70
2022-09-15T17:48:30.665Z,19.71
2022-09-15T17:51:01.095Z,19.70
2022-09-15T17:53:29.022Z,19.67
2022-09-15T17:55:57.440Z,19.65
2022-09-15T17:58:26.836Z,19.59
2022-09-15T18:00:54.733Z,19.58
2022-09-15T18:03:25.037Z,19.53
2022-09-15T18:05:53.022Z,19.48
2022-09-15T18:08:21.180Z,19.43
2022-09-15T18:10:49.462Z,19.38
2022-09-15T18:13:21.727Z,19.31
2022-09-15T18:15:50.172Z,19.24
2022-09-15T18:18:20.024Z,19.18
2022-09-15T18:20:49.646Z,19.12
2022-09-15T18:23:18.934Z,19.07
2022-09-15T18:25:48.040Z,19.02
2022-09-15T18:28:16.800Z,18.98
2022-09-15T18:30:46.973Z,18.94
2022-09-15T18:33:15.118Z,18.91
2022-09-15T18:35:44.002Z,18.90
2022-09-15T18:38:12.074Z,18.87
2022-09-15T18:40:44.347Z,18.85
2022-09-15T18:43:12.480Z,18.83
2022-09-15T18:45:42.589Z,18.82
2022-09-15T18:48:12.865Z,18.80
2022-09-15T18:50:41.999Z,18.78
2022-09-15T18:53:10.137Z,18.75
2022-09-15T18:55:39.984Z,18.73
2022-09-15T18:58:08.219Z,18.70
2022-09-15T19:00:36.935Z,18.68
2022-09-15T19:03:06.325Z,18.67
2022-09-15T19:05:37.165Z,18.65
2022-09-15T19:08:05.264Z,18.64
2022-09-15T19:10:33.463Z,18.63
2022-09-15T19:13:05.100Z,18.62
2022-09-15T19:15:34.748Z,18.62
2022-09-15T19:18:03.009Z,18.62
2022-09-15T19:20:31.237Z,18.63
2022-09-15T19:22:59.175Z,18.65
2022-09-15T19:25:27.489Z,18.68
2022-09-15T19:27:55.662Z,18.70
2022-09-15T19:30:24.117Z,18.72
2022-09-15T19:32:52.049Z,18.74
2022-09-15T19:35:20.052Z,18.74
2022-09-15T19:37:48.221Z,18.73
2022-09-15T19:40:17.114Z,18.73
2022-09-15T19:42:45.826Z,18.72
2022-09-15T19:45:14.307Z,18.71
2022-09-15T19:47:42.821Z,18.68
2022-09-15T19:50:12.242Z,18.66
2022-09-15T19:52:42.384Z,18.63
2022-09-15T19:55:12.131Z,18.61
2022-09-15T19:57:41.012Z,18.58
2022-09-15T20:00:10.567Z,18.54
2022-09-15T20:02:39.273Z,18.52
2022-09-15T20:05:08.507Z,18.50
2022-09-15T20:07:37.294Z,18.49
2022-09-15T20:10:05.597Z,18.49
2022-09-15T20:12:34.261Z,18.48
2022-09-15T20:15:03.148Z,18.47
2022-09-15T20:17:31.499Z,18.45
2022-09-15T20:19:59.599Z,18.44
2022-09-15T20:22:27.774Z,18.44
2022-09-15T20:24:56.423Z,18.48
2022-09-15T20:27:27.797Z,18.50
2022-09-15T20:29:57.595Z,18.55
2022-09-15T20:32:28.407Z,18.59
2022-09-15T20:34:57.258Z,18.63
2022-09-15T20:37:25.422Z,18.66
2022-09-15T20:39:53.449Z,18.70
2022-09-15T20:42:21.475Z,18.72
2022-09-15T20:44:49.443Z,18.75
2022-09-15T20:47:17.818Z,18.78
2022-09-15T20:49:45.612Z,18.79
2022-09-15T20:52:14.576Z,18.78
2022-09-15T20:54:42.649Z,18.81
2022-09-15T20:57:10.643Z,18.80
2022-09-15T20:59:38.795Z,18.85
2022-09-15T21:02:12.805Z,18.86
2022-09-15T21:04:40.878Z,18.86
2022-09-15T21:07:08.787Z,18.86
2022-09-15T21:09:37.188Z,18.87
2022-09-15T21:12:05.537Z,18.87
2022-09-15T21:14:35.359Z,18.88
2022-09-15T21:17:04.035Z,18.87
2022-09-15T21:19:32.276Z,18.85
2022-09-15T21:22:00.450Z,18.84
2022-09-15T21:24:28.420Z,18.81
2022-09-15T21:27:14.945Z,18.78
2022-09-15T21:29:43.506Z,18.73
2022-09-15T21:32:14.695Z,18.68
2022-09-15T21:34:44.303Z,18.64
2022-09-15T21:37:14.533Z,18.60
2022-09-15T21:39:42.606Z,18.56
2022-09-15T21:42:12.882Z,18.53
2022-09-15T21:44:41.049Z,18.50
2022-09-15T21:47:09.122Z,18.47
2022-09-15T21:49:37.258Z,18.43
2022-09-15T21:52:05.383Z,18.40
2022-09-15T21:54:33.265Z,18.37
2022-09-15T21:57:01.206Z,18.34
2022-09-15T21:59:29.237Z,18.31
2022-09-15T22:01:58.024Z,18.30
2022-09-15T22:04:26.293Z,18.28
2022-09-15T22:06:54.615Z,18.27
2022-09-15T22:09:23.213Z,18.25
2022-09-15T22:11:51.685Z,18.23
2022-09-15T22:14:21.521Z,18.21
2022-09-15T22:16:49.747Z,18.19
2022-09-15T22:19:18.530Z,18.17
2022-09-15T22:21:46.910Z,18.14
2022-09-15T22:24:18.078Z,18.11
2022-09-15T22:26:46.058Z,18.09
2022-09-15T22:29:14.258Z,18.07
2022-09-15T22:31:42.775Z,18.04
2022-09-15T22:34:11.162Z,18.02
2022-09-15T22:36:39.706Z,17.99
2022-09-15T22:39:08.124Z,17.96
2022-09-15T22:41:38.354Z,17.93
2022-09-15T22:44:07.170Z,17.89
2022-09-15T22:46:35.448Z,17.86
2022-09-15T22:49:03.654Z,17.82
2022-09-15T22:51:31.700Z,17.79
2022-09-15T22:54:03.174Z,17.76
2022-09-15T22:56:31.233Z,17.71
2022-09-15T22:58:59.392Z,17.67
2022-09-15T23:01:28.492Z,17.61
2022-09-15T23:03:57.784Z,17.57
2022-09-15T23:06:27.275Z,17.52
2022-09-15T23:08:56.909Z,17.46
2022-09-15T23:11:26.162Z,17.41
2022-09-15T23:13:54.717Z,17.35
2022-09-15T23:16:24.373Z,17.30
2022-09-15T23:18:53.135Z,17.24
2022-09-15T23:21:21.302Z,17.18
2022-09-15T23:23:49.348Z,17.12
2022-09-15T23:26:19.452Z,17.07
2022-09-15T23:28:47.985Z,17.02
2022-09-15T23:31:16.438Z,16.97
2022-09-15T23:33:44.708Z,16.92
2022-09-15T23:36:13.885Z,16.89
2022-09-15T23:38:43.508Z,16.85
2022-09-15T23:41:12.184Z,16.82
2022-09-15T23:43:40.406Z,16.79
2022-09-15T23:46:08.836Z,16.76
2022-09-15T23:48:39.296Z,16.72
2022-09-15T23:51:07.350Z,16.70
2022-09-15T23:53:35.820Z,16.68
2022-09-15T23:56:03.995Z,16.65
2022-09-15T23:58:32.168Z,16.64
